Skip Navigation Links Skip Navigation Links

Current Weather

Harnett County, Erwin, N.C.

For information only: do not use for flight planning or navigation.
Latest weather
Observation time Friday, December 4, 2020 2:35 AM EST
Local time Friday, December 4, 2020 2:56 AM EST
Flight conditions Visual Meteorological Conditions
Winds
Wind speed calm
Visibility 10 mi.
Sky condition
Ceiling unlimited
Sky clear
Temperature 39°F
Dewpoint 35°F
Altimeter 30.25 in.Hg
Derived measurements
Relative humidity 86%
Wind chill 39°F
Density altitude -1447 ft.
Remarks
Fully automated report.
Automated weather observing station with precipitation discriminator.
METAR KHRJ 040735Z AUTO 00000KT 10SM CLR 04/02 A3025 RMK AO2 T00370016

Settings

Location code

InnerDrive.Weather 4.0.6770.0 Release CLR 4.0.30319.42000
Copyright ©2018 Inner Drive Technology. All rights reserved. Portions Copyright ©1986-2018 David Braverman.

Find weather

Site navigation


Skip Navigation Links

Place info

Page info

PayPal - The safer, easier way to pay online!

Return home.

Copyright ©2020 Inner Drive Technology. Purveyors of fine, hand-crafted computer software. Page printed 2020-12-04T07:56:43 UTC.